Terminal Aerodrome Forecast
Issued by NWS

Home | Current Version | Previous Version | Text Only | Print | Product List | Glossary On
Versions: 1 2 3 4 5 6 7 8 9 10 11 12 13 14 15 16 17
982
FTUS43 KGRR 300355 AAB
TAFBTL
TAF AMD
KBTL 300355Z 3004/3024 06006KT 5SM -SHRA VCTS BKN025CB
     FM301600 09005KT P6SM VCTS BKN035CB=

USA.gov is the U.S. government's official web portal to all federal, state and local government web resources and services.